createdAt,value
2023-02-03T00:01:46.569Z,102029.78
2023-02-03T00:04:13.325Z,102027.78
2023-02-03T00:06:40.197Z,102038.47
2023-02-03T00:09:06.560Z,102039.41
2023-02-03T00:11:33.927Z,102026.06
2023-02-03T00:14:00.300Z,102035.78
2023-02-03T00:16:26.714Z,102037.66
2023-02-03T00:18:53.101Z,102029.81
2023-02-03T00:21:19.879Z,102025.31
2023-02-03T00:23:46.299Z,102021.16
2023-02-03T00:26:15.544Z,102013.91
2023-02-03T00:28:43.384Z,102012.97
2023-02-03T00:31:22.533Z,102011.25
2023-02-03T00:33:54.799Z,102022.78
2023-02-03T00:36:21.306Z,102015.63
2023-02-03T00:38:48.973Z,102009.53
2023-02-03T00:41:16.308Z,102026.25
2023-02-03T00:43:43.231Z,102025.31
2023-02-03T00:46:09.727Z,102022.78
2023-02-03T00:48:36.123Z,102025.53
2023-02-03T00:51:02.459Z,102020.16
2023-02-03T00:53:28.787Z,102036.09
2023-02-03T00:55:55.132Z,102033.34
2023-02-03T00:58:22.034Z,102046.66
2023-02-03T01:00:48.431Z,102052.84
2023-02-03T01:03:16.138Z,102054.66
2023-02-03T01:05:42.470Z,102058.31
2023-02-03T01:08:08.823Z,102060.94
2023-02-03T01:10:37.968Z,102078.53
2023-02-03T01:13:04.315Z,102084.00
2023-02-03T01:15:30.758Z,102090.97
2023-02-03T01:17:57.489Z,102092.94
2023-02-03T01:20:24.252Z,102087.34
2023-02-03T01:22:50.791Z,102086.44
2023-02-03T01:25:17.222Z,102080.28
2023-02-03T01:27:43.560Z,102066.88
2023-02-03T01:30:10.871Z,102069.63
2023-02-03T01:32:37.219Z,102063.28
2023-02-03T01:35:04.533Z,102073.88
2023-02-03T01:37:30.909Z,102065.00
2023-02-03T01:39:57.670Z,102079.81
2023-02-03T01:42:24.094Z,102083.31
2023-02-03T01:44:52.058Z,102070.94
2023-02-03T01:47:28.081Z,102059.44
2023-02-03T01:50:00.215Z,102072.66
2023-02-03T01:52:28.030Z,102076.31
2023-02-03T01:54:56.685Z,102073.59
2023-02-03T01:57:29.513Z,102069.94
2023-02-03T01:59:59.052Z,102062.94
2023-02-03T02:02:27.650Z,102072.53
2023-02-03T02:05:03.200Z,102057.44
2023-02-03T02:07:31.233Z,102048.63
2023-02-03T02:09:57.613Z,102050.31
2023-02-03T02:12:23.980Z,102053.84
2023-02-03T02:14:50.729Z,102036.06
2023-02-03T02:17:40.295Z,102021.03
2023-02-03T02:20:07.248Z,102020.94
2023-02-03T02:22:58.102Z,102022.09
2023-02-03T02:25:49.606Z,102023.63
2023-02-03T02:28:31.481Z,102026.47
2023-02-03T02:31:17.808Z,102020.94
2023-02-03T02:33:59.421Z,102013.91
2023-02-03T02:36:41.903Z,102003.22
2023-02-03T02:39:22.886Z,101990.78
2023-02-03T02:41:56.498Z,101991.53
2023-02-03T02:44:32.332Z,101999.47
2023-02-03T02:47:22.787Z,101998.59
2023-02-03T02:50:03.230Z,101980.06
2023-02-03T02:52:34.201Z,101984.44
2023-02-03T02:55:07.566Z,101972.09
2023-02-03T02:57:36.904Z,101969.25
2023-02-03T03:00:04.967Z,101986.13
2023-02-03T03:02:35.856Z,101997.78
2023-02-03T03:05:08.473Z,102010.41
2023-02-03T03:07:50.236Z,102016.75
2023-02-03T03:10:24.104Z,102012.28
2023-02-03T03:12:56.923Z,102021.28
2023-02-03T03:15:28.190Z,102020.41
2023-02-03T03:18:14.387Z,102006.25
2023-02-03T03:20:44.121Z,102010.59
2023-02-03T03:23:20.801Z,102016.81
2023-02-03T03:25:51.925Z,102009.59
2023-02-03T03:28:28.280Z,102010.56
2023-02-03T03:30:55.011Z,102015.88
2023-02-03T03:33:22.597Z,102005.31
2023-02-03T03:36:08.940Z,101989.31
2023-02-03T03:38:38.822Z,101998.25
2023-02-03T03:41:15.283Z,102002.53
2023-02-03T03:43:44.904Z,101998.94
2023-02-03T03:46:16.434Z,102003.31
2023-02-03T03:48:50.905Z,101998.78
2023-02-03T03:51:24.410Z,102004.09
2023-02-03T03:53:52.699Z,102014.00
2023-02-03T03:56:46.476Z,102004.22
2023-02-03T03:59:16.069Z,102000.66
2023-02-03T04:01:43.061Z,102013.91
2023-02-03T04:04:11.120Z,102008.66
2023-02-03T04:06:39.459Z,102008.59
2023-02-03T04:09:05.936Z,102003.41
2023-02-03T04:11:50.563Z,102008.13
2023-02-03T04:14:16.932Z,102006.22
2023-02-03T04:16:43.409Z,101998.97
2023-02-03T04:19:09.765Z,101990.94
2023-02-03T04:21:36.773Z,101999.06
2023-02-03T04:24:03.307Z,102005.31
2023-02-03T04:26:29.780Z,102004.22
2023-02-03T04:28:56.116Z,101995.31
2023-02-03T04:31:22.507Z,101997.13
2023-02-03T04:33:48.919Z,101997.22
2023-02-03T04:36:15.259Z,101998.13
2023-02-03T04:38:41.594Z,102010.66
2023-02-03T04:41:07.920Z,101994.78
2023-02-03T04:43:34.241Z,101997.22
2023-02-03T04:46:01.095Z,101992.88
2023-02-03T04:48:27.844Z,101991.88
2023-02-03T04:50:54.167Z,101979.44
2023-02-03T04:53:20.495Z,101975.97
2023-02-03T04:55:48.179Z,101962.44
2023-02-03T04:58:14.887Z,101960.56
2023-02-03T05:00:41.391Z,101953.44
2023-02-03T05:03:07.839Z,101954.31
2023-02-03T05:05:34.200Z,101960.44
2023-02-03T05:08:00.546Z,101965.84
2023-02-03T05:10:27.415Z,101967.72
2023-02-03T05:12:53.901Z,101961.44
2023-02-03T05:15:20.231Z,101961.44
2023-02-03T05:17:46.599Z,101960.63
2023-02-03T05:20:13.073Z,101956.28
2023-02-03T05:22:39.522Z,101960.84
2023-02-03T05:25:06.297Z,101972.19
2023-02-03T05:27:32.637Z,101963.19
2023-02-03T05:29:58.967Z,101955.22
2023-02-03T05:32:25.718Z,101960.63
2023-02-03T05:34:52.052Z,101945.69
2023-02-03T05:37:18.395Z,101949.84
2023-02-03T05:39:44.707Z,101937.31
2023-02-03T05:42:11.047Z,101957.84
2023-02-03T05:44:37.360Z,101962.31
2023-02-03T05:47:03.683Z,101966.72
2023-02-03T05:49:30.069Z,101970.19
2023-02-03T05:51:56.961Z,101951.50
2023-02-03T05:54:24.010Z,101949.72
2023-02-03T05:56:50.386Z,101956.75
2023-02-03T05:59:16.927Z,101945.31
2023-02-03T06:01:43.311Z,101939.84
2023-02-03T06:04:09.856Z,101957.72
2023-02-03T06:06:36.713Z,101952.38
2023-02-03T06:09:08.268Z,101967.38
2023-02-03T06:11:35.862Z,101976.41
2023-02-03T06:14:03.744Z,101976.25
2023-02-03T06:16:30.271Z,101973.66
2023-02-03T06:19:00.777Z,101964.47
2023-02-03T06:21:28.060Z,101955.66
2023-02-03T06:23:55.813Z,101958.53
2023-02-03T06:26:22.310Z,101962.09
2023-02-03T06:28:48.687Z,101953.78
2023-02-03T06:31:15.204Z,101975.34
2023-02-03T06:33:41.615Z,101987.56
2023-02-03T06:36:08.258Z,101967.25
2023-02-03T06:38:34.616Z,101969.00
2023-02-03T06:41:01.157Z,101975.34
2023-02-03T06:43:27.488Z,101963.81
2023-02-03T06:45:53.866Z,101970.13
2023-02-03T06:48:20.267Z,101975.53
2023-02-03T06:50:48.619Z,101971.00
2023-02-03T06:53:15.401Z,101968.38
2023-02-03T06:55:41.860Z,101976.53
2023-02-03T06:58:08.476Z,101972.91
2023-02-03T07:00:34.940Z,101976.78
2023-02-03T07:03:02.110Z,101972.25
2023-02-03T07:05:28.834Z,101980.25
2023-02-03T07:07:55.294Z,101978.59
2023-02-03T07:10:21.697Z,101982.97
2023-02-03T07:12:48.106Z,101985.44
2023-02-03T07:15:14.480Z,101982.97
2023-02-03T07:17:40.839Z,101982.78
2023-02-03T07:20:07.662Z,101994.13
2023-02-03T07:22:34.289Z,101984.16
2023-02-03T07:25:00.651Z,101978.81
2023-02-03T07:27:27.963Z,101983.16
2023-02-03T07:29:54.335Z,101982.22
2023-02-03T07:32:20.664Z,101972.59
2023-02-03T07:34:47.002Z,101975.19
2023-02-03T07:37:13.321Z,101984.94
2023-02-03T07:39:39.655Z,101988.41
2023-02-03T07:42:06.101Z,101986.44
2023-02-03T07:44:36.511Z,101986.50
2023-02-03T07:47:02.879Z,101980.28
2023-02-03T07:49:29.202Z,101990.03
2023-02-03T07:51:56.467Z,101992.88
2023-02-03T07:54:22.794Z,101990.28
2023-02-03T07:56:49.123Z,101996.41
2023-02-03T07:59:17.206Z,101987.50
2023-02-03T08:01:43.583Z,101981.41
2023-02-03T08:04:12.011Z,101984.88
2023-02-03T08:06:38.347Z,101986.63
2023-02-03T08:09:04.753Z,101993.66
2023-02-03T08:11:32.440Z,102003.50
2023-02-03T08:13:58.807Z,102007.84
2023-02-03T08:16:25.228Z,102001.59
2023-02-03T08:18:51.633Z,102004.31
2023-02-03T08:21:18.033Z,102005.22
2023-02-03T08:23:44.347Z,102010.53
2023-02-03T08:26:10.714Z,102011.38
2023-02-03T08:28:37.041Z,102009.59
2023-02-03T08:31:09.912Z,102008.72
2023-02-03T08:33:36.596Z,102004.06
2023-02-03T08:36:05.624Z,101994.34
2023-02-03T08:38:32.267Z,101994.41
2023-02-03T08:40:58.889Z,101999.69
2023-02-03T08:43:25.245Z,102000.41
2023-02-03T08:45:51.702Z,102005.69
2023-02-03T08:48:18.404Z,102010.09
2023-02-03T08:50:51.763Z,102003.06
2023-02-03T08:53:18.657Z,102010.91
2023-02-03T08:55:45.002Z,102007.22
2023-02-03T08:58:11.429Z,102010.75
2023-02-03T09:00:38.435Z,102001.81
2023-02-03T09:03:04.814Z,102007.03
2023-02-03T09:05:32.011Z,102006.88
2023-02-03T09:07:58.397Z,102007.63
2023-02-03T09:10:24.866Z,102003.09
2023-02-03T09:12:51.317Z,102005.59
2023-02-03T09:15:17.842Z,102013.69
2023-02-03T09:17:44.249Z,102019.75
2023-02-03T09:20:13.174Z,102017.06
2023-02-03T09:22:39.550Z,102008.06
2023-02-03T09:25:07.169Z,102025.81
2023-02-03T09:27:33.492Z,102017.97
2023-02-03T09:29:59.833Z,102017.66
2023-02-03T09:32:26.206Z,102022.19
2023-02-03T09:34:52.523Z,102021.22
2023-02-03T09:37:18.960Z,102016.78
2023-02-03T09:39:45.302Z,102013.09
2023-02-03T09:42:25.693Z,102036.16
2023-02-03T09:45:04.497Z,102019.19
2023-02-03T09:47:36.409Z,102028.22
2023-02-03T09:50:06.471Z,102033.47
2023-02-03T09:52:39.636Z,102019.31
2023-02-03T09:55:39.349Z,102013.84
2023-02-03T09:58:13.350Z,102017.41
2023-02-03T10:00:51.061Z,102006.66
2023-02-03T10:03:54.038Z,102003.69
2023-02-03T10:06:36.130Z,102026.81
2023-02-03T10:09:21.449Z,102027.72
2023-02-03T10:12:21.969Z,102029.50
2023-02-03T10:15:16.643Z,102016.13
2023-02-03T10:18:00.459Z,102033.13
2023-02-03T10:20:40.024Z,102035.91
2023-02-03T10:23:18.521Z,102041.25
2023-02-03T10:25:57.093Z,102037.63
2023-02-03T10:28:29.443Z,102037.63
2023-02-03T10:31:08.570Z,102049.16
2023-02-03T10:33:35.229Z,102048.84
2023-02-03T10:36:15.006Z,102054.41
2023-02-03T10:38:59.391Z,102048.03
2023-02-03T10:41:28.684Z,102051.44
2023-02-03T10:43:57.360Z,102040.03
2023-02-03T10:46:34.464Z,102044.44
2023-02-03T10:49:00.972Z,102039.16
2023-02-03T10:51:37.433Z,102043.44
2023-02-03T10:54:03.912Z,102045.22
2023-02-03T10:56:36.383Z,102045.38
2023-02-03T10:59:03.762Z,102046.09
2023-02-03T11:01:46.944Z,102041.66
2023-02-03T11:04:33.412Z,102038.06
2023-02-03T11:07:02.848Z,102034.59
2023-02-03T11:09:33.556Z,102037.06
2023-02-03T11:12:11.919Z,102044.31
2023-02-03T11:14:41.418Z,102038.81
2023-02-03T11:17:29.607Z,102049.22
2023-02-03T11:20:16.851Z,102045.69
2023-02-03T11:22:44.601Z,102053.66
2023-02-03T11:25:32.304Z,102065.22
2023-02-03T11:28:05.653Z,102057.13
2023-02-03T11:30:32.811Z,102064.16
2023-02-03T11:33:02.983Z,102062.34
2023-02-03T11:35:31.603Z,102063.13
2023-02-03T11:38:00.603Z,102067.53
2023-02-03T11:40:30.648Z,102064.00
2023-02-03T11:42:57.126Z,102051.28
2023-02-03T11:45:29.241Z,102061.06
2023-02-03T11:48:03.084Z,102067.19
2023-02-03T11:50:38.732Z,102050.38
2023-02-03T11:53:15.287Z,102068.06
2023-02-03T11:55:48.114Z,102068.28
2023-02-03T11:58:31.911Z,102053.97
2023-02-03T12:01:12.388Z,102056.94
2023-02-03T12:04:00.428Z,102061.38
2023-02-03T12:06:52.973Z,102059.47
2023-02-03T12:09:20.684Z,102061.31
2023-02-03T12:12:07.458Z,102064.81
2023-02-03T12:14:49.003Z,102064.75
2023-02-03T12:17:26.909Z,102069.94
2023-02-03T12:20:13.985Z,102078.03
2023-02-03T12:22:53.042Z,102078.97
2023-02-03T12:25:34.535Z,102078.88
2023-02-03T12:28:07.167Z,102095.81
2023-02-03T12:30:47.445Z,102078.09
2023-02-03T12:33:25.446Z,102079.03
2023-02-03T12:36:03.286Z,102064.84
2023-02-03T12:38:48.887Z,102080.50
2023-02-03T12:41:41.833Z,102066.88
2023-02-03T12:44:40.448Z,102077.34
2023-02-03T12:47:40.029Z,102070.09
2023-02-03T12:50:23.735Z,102073.47
2023-02-03T12:52:59.852Z,102064.44
2023-02-03T12:55:44.418Z,102073.16
2023-02-03T12:58:28.849Z,102063.41
2023-02-03T13:01:03.982Z,102071.34
2023-02-03T13:03:42.814Z,102065.94
2023-02-03T13:06:22.117Z,102062.31
2023-02-03T13:09:00.022Z,102070.34
2023-02-03T13:11:34.993Z,102059.78
2023-02-03T13:14:31.566Z,102056.09
2023-02-03T13:17:06.586Z,102065.88
2023-02-03T13:19:49.993Z,102065.09
2023-02-03T13:22:17.428Z,102059.78
2023-02-03T13:25:09.245Z,102057.97
2023-02-03T13:27:48.847Z,102059.78
2023-02-03T13:30:33.552Z,102051.78
2023-02-03T13:33:20.143Z,102060.16
2023-02-03T13:36:20.383Z,102053.94
2023-02-03T13:38:55.920Z,102053.84
2023-02-03T13:41:34.490Z,102051.31
2023-02-03T13:44:01.917Z,102062.97
2023-02-03T13:46:34.886Z,102078.94
2023-02-03T13:49:04.729Z,102090.78
2023-02-03T13:51:35.781Z,102092.00
2023-02-03T13:54:07.081Z,102106.00
2023-02-03T13:56:34.391Z,102122.91
2023-02-03T13:59:05.136Z,102133.22
2023-02-03T14:01:38.330Z,102121.47
2023-02-03T14:04:09.543Z,102128.13
2023-02-03T14:06:36.036Z,102111.66
2023-02-03T14:09:19.405Z,102113.00
2023-02-03T14:11:47.000Z,102120.19
2023-02-03T14:14:33.587Z,102109.81
2023-02-03T14:17:00.003Z,102112.66
2023-02-03T14:19:29.261Z,102113.66
2023-02-03T14:22:07.910Z,102128.53
2023-02-03T14:24:38.989Z,102145.31
2023-02-03T14:27:16.259Z,102148.09
2023-02-03T14:29:42.976Z,102154.13
2023-02-03T14:32:11.459Z,102161.06
2023-02-03T14:34:40.945Z,102178.75
2023-02-03T14:37:16.872Z,102164.56
2023-02-03T14:40:01.385Z,102166.31
2023-02-03T14:42:39.034Z,102166.19
2023-02-03T14:45:31.575Z,102171.53
2023-02-03T14:48:11.146Z,102178.50
2023-02-03T14:51:04.020Z,102187.41
2023-02-03T14:53:39.496Z,102192.66
2023-02-03T14:56:56.374Z,102196.34
2023-02-03T14:59:25.996Z,102194.38
2023-02-03T15:01:52.611Z,102198.72
2023-02-03T15:04:19.015Z,102190.72
2023-02-03T15:06:48.184Z,102193.34
2023-02-03T15:09:39.787Z,102188.81
2023-02-03T15:12:20.044Z,102203.88
2023-02-03T15:14:46.381Z,102209.19
2023-02-03T15:17:34.344Z,102208.28
2023-02-03T15:20:00.759Z,102219.84
2023-02-03T15:22:29.627Z,102217.22
2023-02-03T15:24:59.398Z,102212.06
2023-02-03T15:27:30.774Z,102219.84
2023-02-03T15:29:59.022Z,102224.28
2023-02-03T15:32:33.197Z,102227.84
2023-02-03T15:35:04.820Z,102227.72
2023-02-03T15:37:42.927Z,102234.78
2023-02-03T15:40:18.758Z,102233.25
2023-02-03T15:43:21.871Z,102228.72
2023-02-03T15:46:00.024Z,102228.94
2023-02-03T15:48:29.364Z,102227.09
2023-02-03T15:51:04.743Z,102223.50
2023-02-03T15:53:46.814Z,102228.88
2023-02-03T15:56:36.165Z,102231.56
2023-02-03T15:59:02.917Z,102231.44
2023-02-03T16:01:30.516Z,102244.78
2023-02-03T16:03:58.392Z,102245.63
2023-02-03T16:06:36.894Z,102250.97
2023-02-03T16:09:06.758Z,102251.06
2023-02-03T16:11:37.118Z,102264.47
2023-02-03T16:14:06.928Z,102267.94
2023-02-03T16:17:03.955Z,102276.78
2023-02-03T16:19:34.113Z,102273.38
2023-02-03T16:22:00.579Z,102270.59
2023-02-03T16:24:32.977Z,102282.41
2023-02-03T16:27:27.315Z,102276.13
2023-02-03T16:30:13.941Z,102278.06
2023-02-03T16:32:59.197Z,102290.41
2023-02-03T16:35:43.935Z,102287.88
2023-02-03T16:38:36.407Z,102291.44
2023-02-03T16:41:24.309Z,102297.66
2023-02-03T16:44:09.305Z,102305.88
2023-02-03T16:46:55.540Z,102304.78
2023-02-03T16:49:40.262Z,102305.84
2023-02-03T16:52:08.766Z,102315.69
2023-02-03T16:54:35.095Z,102314.09
2023-02-03T16:57:01.458Z,102314.03
2023-02-03T16:59:27.898Z,102313.19
2023-02-03T17:01:54.321Z,102315.72
2023-02-03T17:04:20.727Z,102324.56
2023-02-03T17:06:51.399Z,102322.00
2023-02-03T17:09:23.352Z,102329.09
2023-02-03T17:11:50.028Z,102331.22
2023-02-03T17:14:16.940Z,102334.72
2023-02-03T17:16:43.529Z,102335.66
2023-02-03T17:19:11.430Z,102331.22
2023-02-03T17:21:39.180Z,102341.81
2023-02-03T17:24:06.230Z,102341.88
2023-02-03T17:26:34.115Z,102343.66
2023-02-03T17:29:03.079Z,102349.13
2023-02-03T17:31:30.289Z,102357.97
2023-02-03T17:33:57.637Z,102357.03
2023-02-03T17:36:24.467Z,102364.16
2023-02-03T17:55:24.034Z,102398.13
2023-02-03T17:57:50.887Z,102397.25
2023-02-03T18:00:17.527Z,102397.25
2023-02-03T18:02:44.170Z,102403.31
2023-02-03T18:05:11.131Z,102401.63
2023-02-03T18:07:37.500Z,102400.81
2023-02-03T18:10:04.404Z,102406.00
2023-02-03T18:12:30.784Z,102408.69
2023-02-03T18:14:57.891Z,102412.31
2023-02-03T18:17:24.292Z,102412.50
2023-02-03T18:19:55.807Z,102412.72
2023-02-03T18:22:22.878Z,102411.84
2023-02-03T18:24:52.409Z,102417.03
2023-02-03T18:27:19.458Z,102433.94
2023-02-03T18:29:47.011Z,102427.88
2023-02-03T18:32:15.556Z,102435.06
2023-02-03T18:34:42.113Z,102428.81
2023-02-03T18:37:08.897Z,102441.19
2023-02-03T18:39:35.509Z,102439.38
2023-02-03T18:42:01.989Z,102444.03
2023-02-03T18:44:28.423Z,102435.19
2023-02-03T18:46:54.918Z,102432.69
2023-02-03T18:49:21.374Z,102430.28
2023-02-03T18:51:47.742Z,102429.53
2023-02-03T18:54:14.091Z,102430.41
2023-02-03T18:56:40.505Z,102428.91
2023-02-03T18:59:10.127Z,102444.97
2023-02-03T19:01:38.602Z,102443.16
2023-02-03T19:04:05.064Z,102448.69
2023-02-03T19:06:33.104Z,102452.22
2023-02-03T19:09:00.421Z,102449.81
2023-02-03T19:11:26.915Z,102446.94
2023-02-03T19:13:53.454Z,102456.66
2023-02-03T19:16:20.276Z,102446.78
2023-02-03T19:18:47.234Z,102466.63
2023-02-03T19:21:14.067Z,102470.03
2023-02-03T19:23:41.665Z,102469.97
2023-02-03T19:26:09.809Z,102478.09
2023-02-03T19:28:36.222Z,102483.56
2023-02-03T19:31:08.833Z,102485.53
2023-02-03T19:33:36.725Z,102502.28
2023-02-03T19:36:04.455Z,102509.31
2023-02-03T19:38:30.839Z,102507.59
2023-02-03T19:40:57.192Z,102502.22
2023-02-03T19:43:24.566Z,102503.06
2023-02-03T19:45:51.558Z,102504.88
2023-02-03T19:48:18.213Z,102514.59
2023-02-03T19:50:46.860Z,102518.13
2023-02-03T19:53:14.707Z,102515.34
2023-02-03T19:55:45.534Z,102522.78
2023-02-03T19:58:14.217Z,102520.88
2023-02-03T20:00:42.261Z,102520.88
2023-02-03T20:03:08.951Z,102516.63
2023-02-03T20:05:36.194Z,102515.69
2023-02-03T20:08:02.996Z,102523.91
2023-02-03T20:10:29.708Z,102528.25
2023-02-03T20:12:56.242Z,102529.22
2023-02-03T20:15:22.707Z,102532.84
2023-02-03T20:17:49.134Z,102527.66
2023-02-03T20:20:27.092Z,102532.94
2023-02-03T20:22:53.512Z,102537.34
2023-02-03T20:25:20.050Z,102530.22
2023-02-03T20:27:46.491Z,102531.19
2023-02-03T20:30:13.391Z,102538.34
2023-02-03T20:32:39.924Z,102538.44
2023-02-03T20:35:07.008Z,102537.56
2023-02-03T20:37:35.869Z,102542.78
2023-02-03T20:40:06.097Z,102544.56
2023-02-03T20:42:33.772Z,102547.28
2023-02-03T20:45:00.154Z,102550.75
2023-02-03T20:47:26.543Z,102563.31
2023-02-03T20:49:53.578Z,102570.47
2023-02-03T20:52:20.899Z,102574.88
2023-02-03T20:54:47.862Z,102585.31
2023-02-03T20:57:19.091Z,102575.50
2023-02-03T20:59:46.209Z,102586.25
2023-02-03T21:02:57.510Z,102580.94
2023-02-03T21:05:27.268Z,102580.91
2023-02-03T21:07:54.070Z,102587.06
2023-02-03T21:10:24.794Z,102588.88
2023-02-03T21:12:52.177Z,102590.72
2023-02-03T21:15:29.830Z,102596.91
2023-02-03T21:17:56.252Z,102596.81
2023-02-03T21:20:28.927Z,102594.22
2023-02-03T21:22:56.494Z,102596.16
2023-02-03T21:25:27.035Z,102596.91
2023-02-03T21:27:54.405Z,102586.22
2023-02-03T21:30:30.811Z,102599.56
2023-02-03T21:32:58.905Z,102597.84
2023-02-03T21:35:31.202Z,102600.53
2023-02-03T21:38:02.546Z,102598.84
2023-02-03T21:40:34.207Z,102614.72
2023-02-03T21:43:02.955Z,102611.28
2023-02-03T21:45:42.050Z,102610.41
2023-02-03T21:48:22.299Z,102616.63
2023-02-03T21:50:48.647Z,102626.50
2023-02-03T21:53:15.389Z,102619.34
2023-02-03T21:55:42.476Z,102615.78
2023-02-03T21:58:11.763Z,102624.69
2023-02-03T22:00:47.786Z,102630.84
2023-02-03T22:03:46.313Z,102638.03
2023-02-03T22:06:12.674Z,102637.16
2023-02-03T22:08:47.822Z,102630.03
2023-02-03T22:11:15.236Z,102620.22
2023-02-03T22:13:42.617Z,102613.13
2023-02-03T22:16:09.505Z,102624.69
2023-02-03T22:18:36.209Z,102626.44
2023-02-03T22:21:03.246Z,102629.91
2023-02-03T22:23:29.748Z,102628.03
2023-02-03T22:25:56.119Z,102628.09
2023-02-03T22:28:22.592Z,102641.50
2023-02-03T22:30:49.353Z,102661.97
2023-02-03T22:33:15.789Z,102660.16
2023-02-03T22:35:42.274Z,102661.13
2023-02-03T22:38:08.598Z,102666.47
2023-02-03T22:40:35.120Z,102670.09
2023-02-03T22:43:01.556Z,102670.19
2023-02-03T22:45:27.922Z,102675.56
2023-02-03T22:47:56.354Z,102683.59
2023-02-03T22:50:34.739Z,102689.88
2023-02-03T22:53:03.967Z,102694.44
2023-02-03T22:55:31.198Z,102698.81
2023-02-03T22:57:58.358Z,102702.34
2023-02-03T23:00:25.353Z,102684.53
2023-02-03T23:02:51.813Z,102697.84
2023-02-03T23:05:18.841Z,102700.47
2023-02-03T23:07:45.993Z,102698.63
2023-02-03T23:10:17.345Z,102711.94
2023-02-03T23:12:44.186Z,102693.28
2023-02-03T23:15:10.672Z,102706.69
2023-02-03T23:17:37.005Z,102710.13
2023-02-03T23:20:05.375Z,102709.38
2023-02-03T23:22:31.794Z,102704.91
2023-02-03T23:24:59.879Z,102716.59
2023-02-03T23:27:26.696Z,102714.72
2023-02-03T23:29:53.061Z,102715.72
2023-02-03T23:32:19.377Z,102712.22
2023-02-03T23:35:04.041Z,102723.66
2023-02-03T23:37:30.369Z,102722.88
2023-02-03T23:39:56.738Z,102725.66
2023-02-03T23:42:23.210Z,102731.13
2023-02-03T23:44:49.558Z,102726.75
2023-02-03T23:47:16.139Z,102728.47
2023-02-03T23:49:42.463Z,102732.97
2023-02-03T23:52:08.831Z,102733.88
2023-02-03T23:54:35.421Z,102732.28
2023-02-03T23:57:01.832Z,102738.53
2023-02-03T23:59:28.182Z,102730.59
